Time;durP1;ratioP1;P1;durP2;ratioP2;P2;SDS_P1;SDS_P2;PMS_P1;PMS_P2;Temp;Humidity;BMP_temperature;BMP_pressure;BME280_temperature;BME280_humidity;BME280_pressure;Samples;Min_cycle;Max_cycle;Signal;HPM_P1;HPM_P2
2023/04/06 00:01:56;;;;;;;11.98;6.13;;;3.20;99.90;;;;;;5032507;28;20061;-73
2023/04/06 00:04:22;;;;;;;10.38;5.35;;;3.10;99.90;;;;;;5036708;28;20041;-74
2023/04/06 00:06:47;;;;;;;10.95;5.97;;;3.10;99.90;;;;;;5024497;28;20497;-74
2023/04/06 00:09:13;;;;;;;9.23;5.13;;;3.10;99.90;;;;;;4993490;28;20041;-73
2023/04/06 00:11:39;;;;;;;14.05;5.97;;;3.10;99.90;;;;;;5005134;28;20040;-73
2023/04/06 00:14:05;;;;;;;11.00;5.82;;;3.80;99.90;;;;;;5015016;28;20704;-73
2023/04/06 00:16:31;;;;;;;13.13;5.93;;;3.00;99.90;;;;;;5020320;28;20059;-72
2023/04/06 00:18:57;;;;;;;10.35;5.82;;;3.00;99.90;;;;;;5005735;28;20056;-74
2023/04/06 00:21:23;;;;;;;10.95;5.57;;;3.50;99.90;;;;;;4995210;28;20052;-73
2023/04/06 00:23:48;;;;;;;10.48;5.90;;;2.90;99.90;;;;;;5038746;28;20045;-74
2023/04/06 00:26:14;;;;;;;9.52;5.13;;;2.90;99.90;;;;;;5025271;28;20559;-73
2023/04/06 00:28:40;;;;;;;10.82;5.60;;;3.10;99.90;;;;;;5023726;28;20056;-73
2023/04/06 00:31:05;;;;;;;9.38;5.50;;;3.00;99.90;;;;;;5024635;28;20140;-72
2023/04/06 00:33:32;;;;;;;10.88;5.35;;;2.80;99.90;;;;;;5031915;28;20044;-73
2023/04/06 00:35:58;;;;;;;11.95;6.18;;;2.80;99.90;;;;;;5048634;28;20054;-73
2023/04/06 00:38:23;;;;;;;11.98;5.03;;;2.70;99.90;;;;;;5041563;28;20464;-73
2023/04/06 00:40:50;;;;;;;11.18;5.32;;;2.70;99.90;;;;;;5028747;28;20052;-73
2023/04/06 00:43:15;;;;;;;13.90;5.28;;;2.60;99.90;;;;;;5041882;28;20704;-73
2023/04/06 00:45:42;;;;;;;11.20;5.00;;;2.60;99.90;;;;;;5042316;28;20041;-73
2023/04/06 00:48:08;;;;;;;10.85;5.40;;;2.60;99.90;;;;;;5043006;28;20035;-73
2023/04/06 00:50:34;;;;;;;8.75;4.85;;;2.50;99.90;;;;;;5036238;28;20114;-74
2023/04/06 00:53:00;;;;;;;12.98;5.35;;;2.50;99.90;;;;;;5043407;28;20077;-73
2023/04/06 00:55:29;;;;;;;11.40;5.63;;;3.30;99.90;;;;;;5039053;28;20084;-72
2023/04/06 00:57:58;;;;;;;9.40;4.75;;;2.50;99.90;;;;;;5040488;28;20491;-74
2023/04/06 01:00:24;;;;;;;13.07;5.32;;;3.10;99.90;;;;;;5034166;28;20044;-73
2023/04/06 01:02:50;;;;;;;8.93;4.95;;;2.40;99.90;;;;;;5018023;28;20098;-72
2023/04/06 01:05:15;;;;;;;9.23;4.97;;;2.40;99.90;;;;;;5025068;28;20059;-72
2023/04/06 01:07:41;;;;;;;10.15;4.70;;;2.40;99.90;;;;;;5040197;28;20049;-73
2023/04/06 01:10:07;;;;;;;9.73;4.72;;;2.40;99.90;;;;;;5033321;28;20072;-73
2023/04/06 01:12:38;;;;;;;9.55;4.93;;;2.40;99.90;;;;;;5017768;28;20041;-73
2023/04/06 01:15:05;;;;;;;14.50;5.43;;;2.30;99.90;;;;;;5030852;28;20048;-72
2023/04/06 01:17:31;;;;;;;10.68;4.68;;;2.30;99.90;;;;;;5036698;28;20459;-73
2023/04/06 01:19:57;;;;;;;9.70;4.35;;;2.30;99.90;;;;;;5040057;28;20049;-73
2023/04/06 01:22:24;;;;;;;9.18;5.25;;;2.30;99.90;;;;;;5020921;28;20040;-73
2023/04/06 01:24:50;;;;;;;9.52;4.85;;;2.20;99.90;;;;;;5034789;28;20045;-73
2023/04/06 01:27:15;;;;;;;9.77;4.53;;;2.20;99.90;;;;;;5043509;28;20114;-74
2023/04/06 01:29:42;;;;;;;8.57;4.47;;;2.80;99.90;;;;;;5042489;28;20048;-72
2023/04/06 01:32:08;;;;;;;8.75;4.72;;;2.10;99.90;;;;;;5038310;28;20033;-73
2023/04/06 01:34:34;;;;;;;11.20;4.78;;;2.10;99.90;;;;;;5016899;28;20037;-73
2023/04/06 01:37:06;;;;;;;8.40;4.95;;;2.10;99.90;;;;;;5020007;28;20056;-72
2023/04/06 01:39:31;;;;;;;8.20;4.47;;;2.20;99.90;;;;;;5039617;28;20424;-72
2023/04/06 01:41:57;;;;;;;8.48;4.10;;;2.10;99.90;;;;;;5038197;28;20059;-72
2023/04/06 01:44:23;;;;;;;9.32;4.57;;;2.00;99.90;;;;;;5045061;28;20871;-73
2023/04/06 01:46:48;;;;;;;8.98;4.85;;;2.00;99.90;;;;;;5041753;28;20188;-73
2023/04/06 01:49:14;;;;;;;9.02;5.05;;;2.00;99.90;;;;;;5038637;28;20755;-73
2023/04/06 01:51:40;;;;;;;12.65;4.65;;;2.00;99.90;;;;;;5038109;28;20049;-72
2023/04/06 01:54:06;;;;;;;8.73;5.03;;;2.00;99.90;;;;;;5035849;28;20045;-72
2023/04/06 01:56:31;;;;;;;11.82;5.20;;;2.00;99.90;;;;;;5042763;28;20120;-72
2023/04/06 01:58:57;;;;;;;9.93;4.45;;;2.00;99.90;;;;;;5040399;28;20055;-72
2023/04/06 02:01:23;;;;;;;8.43;4.70;;;1.90;99.90;;;;;;5036917;28;20312;-72
2023/04/06 02:03:48;;;;;;;9.00;4.65;;;1.90;99.90;;;;;;5046757;28;20040;-73
2023/04/06 02:06:14;;;;;;;11.07;5.22;;;1.90;99.90;;;;;;5026367;28;20052;-72
2023/04/06 02:08:40;;;;;;;10.88;5.15;;;1.80;99.90;;;;;;5030330;28;20076;-73
2023/04/06 02:11:05;;;;;;;8.52;4.80;;;1.80;99.90;;;;;;5024786;28;20642;-73
2023/04/06 02:13:31;;;;;;;12.27;5.15;;;1.80;99.90;;;;;;5024020;28;20522;-72
2023/04/06 02:15:57;;;;;;;10.10;4.80;;;1.70;99.90;;;;;;5007476;28;20037;-73
2023/04/06 02:18:23;;;;;;;11.13;5.03;;;2.00;99.90;;;;;;5036400;28;20273;-73
2023/04/06 02:20:48;;;;;;;9.00;4.72;;;1.70;99.90;;;;;;5023487;28;20079;-73
2023/04/06 02:23:14;;;;;;;9.93;5.28;;;1.70;99.90;;;;;;5022058;28;20053;-74
2023/04/06 02:25:41;;;;;;;8.20;4.53;;;1.70;99.90;;;;;;5023341;28;20701;-71
2023/04/06 02:28:06;;;;;;;10.18;4.68;;;1.60;99.90;;;;;;5040629;28;20129;-72
2023/04/06 02:30:35;;;;;;;9.82;5.28;;;1.60;99.90;;;;;;5029157;28;20451;-71
2023/04/06 02:33:01;;;;;;;13.30;5.32;;;1.60;99.90;;;;;;5041063;28;20032;-71
2023/04/06 02:35:31;;;;;;;7.97;4.78;;;1.50;99.90;;;;;;5033522;28;20049;-72
2023/04/06 02:37:57;;;;;;;10.48;4.68;;;1.50;99.90;;;;;;5043595;28;20049;-71
2023/04/06 02:40:23;;;;;;;12.27;5.03;;;1.50;99.90;;;;;;5043070;28;20575;-71
2023/04/06 02:42:49;;;;;;;11.02;4.75;;;1.50;99.90;;;;;;5033533;28;20085;-71
2023/04/06 02:45:15;;;;;;;8.48;4.32;;;1.40;99.90;;;;;;5035908;28;20055;-71
2023/04/06 02:47:41;;;;;;;10.75;5.15;;;1.40;99.90;;;;;;5016844;28;20057;-71
2023/04/06 02:50:07;;;;;;;14.20;4.72;;;1.40;99.90;;;;;;5049570;28;20037;-72
2023/04/06 02:52:36;;;;;;;10.45;4.90;;;1.40;99.90;;;;;;5052169;28;20409;-71
2023/04/06 02:55:02;;;;;;;8.30;4.18;;;2.20;99.90;;;;;;5028775;28;20130;-71
2023/04/06 02:57:27;;;;;;;13.07;4.85;;;1.40;99.90;;;;;;5017742;28;20033;-71
2023/04/06 02:59:53;;;;;;;9.18;4.68;;;1.80;99.90;;;;;;5014205;28;20048;-72
2023/04/06 03:02:19;;;;;;;9.20;4.82;;;1.60;99.90;;;;;;5040405;28;20084;-71
2023/04/06 03:04:44;;;;;;;11.88;5.20;;;1.30;99.90;;;;;;5015421;28;20041;-71
2023/04/06 03:07:10;;;;;;;12.32;4.78;;;1.30;99.90;;;;;;5039289;28;20041;-71
2023/04/06 03:09:40;;;;;;;9.23;4.78;;;1.30;99.90;;;;;;5036960;28;20044;-71
2023/04/06 03:12:06;;;;;;;10.88;4.80;;;1.30;99.90;;;;;;5031106;28;20060;-72
2023/04/06 03:14:31;;;;;;;9.98;4.50;;;1.30;99.90;;;;;;5050896;28;20040;-71
2023/04/06 03:16:57;;;;;;;9.35;4.88;;;1.30;99.90;;;;;;5033348;28;20049;-71
2023/04/06 03:19:22;;;;;;;10.32;5.22;;;1.30;99.90;;;;;;5030074;28;20048;-72
2023/04/06 03:21:48;;;;;;;10.85;4.85;;;1.20;99.90;;;;;;5024930;28;20045;-71
2023/04/06 03:24:14;;;;;;;9.55;4.90;;;1.30;99.90;;;;;;5044063;28;20037;-71
2023/04/06 03:26:40;;;;;;;8.52;4.80;;;1.20;99.90;;;;;;5041719;28;20049;-71
2023/04/06 03:29:06;;;;;;;8.93;4.75;;;1.20;99.90;;;;;;5034157;28;20052;-71
2023/04/06 03:31:31;;;;;;;10.32;5.35;;;1.20;99.90;;;;;;5041451;28;20037;-72
2023/04/06 03:33:57;;;;;;;13.73;4.97;;;1.20;99.90;;;;;;5042386;28;20055;-71
2023/04/06 03:36:23;;;;;;;8.60;4.53;;;1.40;99.90;;;;;;5041910;28;20201;-70
2023/04/06 03:38:49;;;;;;;10.73;5.55;;;1.10;99.90;;;;;;5038024;28;20064;-71
2023/04/06 03:41:14;;;;;;;8.68;4.05;;;1.10;99.90;;;;;;5039218;28;20066;-72
2023/04/06 03:43:40;;;;;;;10.40;5.18;;;1.10;99.90;;;;;;5031509;28;20135;-71
2023/04/06 03:46:06;;;;;;;10.27;5.28;;;1.10;99.90;;;;;;5042272;28;20123;-71
2023/04/06 03:48:36;;;;;;;9.70;5.35;;;1.20;99.90;;;;;;5039955;28;20084;-71
2023/04/06 03:51:01;;;;;;;10.63;4.55;;;1.10;99.90;;;;;;5043146;28;20041;-71
2023/04/06 03:53:27;;;;;;;11.18;5.13;;;1.10;99.90;;;;;;5032121;28;20040;-72
2023/04/06 03:55:53;;;;;;;8.68;4.65;;;1.10;99.90;;;;;;5028893;28;20080;-71
2023/04/06 03:58:18;;;;;;;12.77;5.38;;;1.10;99.90;;;;;;5026591;28;20033;-71
2023/04/06 04:00:44;;;;;;;9.63;5.10;;;1.10;99.90;;;;;;5048349;28;20045;-71
2023/04/06 04:03:10;;;;;;;10.90;4.85;;;2.20;99.90;;;;;;5038860;28;20040;-71
2023/04/06 04:05:36;;;;;;;10.35;4.90;;;1.00;99.90;;;;;;5045507;28;20044;-71
2023/04/06 04:08:01;;;;;;;8.73;5.07;;;1.10;99.90;;;;;;5042732;28;20057;-71
2023/04/06 04:10:27;;;;;;;15.18;4.88;;;1.00;99.90;;;;;;5025675;28;20041;-71
2023/04/06 04:12:53;;;;;;;12.00;5.38;;;1.10;99.90;;;;;;5042839;28;20508;-71
2023/04/06 04:15:18;;;;;;;11.93;5.68;;;1.00;99.90;;;;;;5050332;28;20511;-71
2023/04/06 04:17:49;;;;;;;9.73;5.47;;;1.10;99.90;;;;;;5046156;28;20044;-71
2023/04/06 04:20:16;;;;;;;10.35;5.40;;;1.00;99.90;;;;;;5040263;28;20053;-71
2023/04/06 04:22:42;;;;;;;10.77;5.72;;;1.00;99.90;;;;;;5046409;28;20033;-71
2023/04/06 04:25:08;;;;;;;9.32;5.50;;;0.90;99.90;;;;;;5035544;28;20097;-71
2023/04/06 04:27:34;;;;;;;10.80;5.18;;;0.90;99.90;;;;;;5056003;28;20045;-70
2023/04/06 04:30:00;;;;;;;10.90;5.60;;;0.90;99.90;;;;;;5042174;28;20045;-70
2023/04/06 04:32:27;;;;;;;11.05;5.40;;;1.00;99.90;;;;;;5035097;28;20045;-70
2023/04/06 04:34:53;;;;;;;11.48;5.72;;;1.70;99.90;;;;;;5022054;28;20143;-71
2023/04/06 04:37:19;;;;;;;10.68;5.57;;;1.00;99.90;;;;;;5051892;28;20044;-70
2023/04/06 04:39:45;;;;;;;7.95;5.05;;;0.80;99.90;;;;;;5055286;28;20045;-70
2023/04/06 04:42:11;;;;;;;9.95;6.05;;;0.80;99.90;;;;;;5030647;28;20169;-71
2023/04/06 04:44:36;;;;;;;11.63;5.10;;;0.80;99.90;;;;;;5025616;28;20456;-70
2023/04/06 04:47:02;;;;;;;12.82;5.82;;;0.80;99.90;;;;;;5022808;28;20053;-71
2023/04/06 04:49:28;;;;;;;9.70;5.72;;;0.80;99.90;;;;;;5022993;28;20944;-70
2023/04/06 04:51:55;;;;;;;10.88;5.70;;;0.70;99.90;;;;;;5029347;28;20513;-70
2023/04/06 04:54:21;;;;;;;12.10;5.80;;;0.80;99.90;;;;;;5036043;28;20119;-70
2023/04/06 04:56:46;;;;;;;10.10;5.63;;;0.70;99.90;;;;;;5029049;28;20056;-70
2023/04/06 04:59:12;;;;;;;12.32;5.35;;;0.70;99.90;;;;;;5037755;28;20146;-70
2023/04/06 05:01:38;;;;;;;10.00;5.35;;;0.70;99.90;;;;;;5012361;28;20045;-70
2023/04/06 05:04:04;;;;;;;14.00;6.28;;;0.70;99.90;;;;;;5034541;28;20049;-71
2023/04/06 05:06:29;;;;;;;11.20;6.30;;;0.70;99.90;;;;;;5031422;28;20106;-71
2023/04/06 05:08:55;;;;;;;12.48;5.80;;;0.70;99.90;;;;;;5026186;28;20140;-71
2023/04/06 05:11:21;;;;;;;13.63;5.82;;;0.70;99.90;;;;;;5009677;28;20033;-71
2023/04/06 05:13:47;;;;;;;14.07;5.82;;;0.70;99.90;;;;;;5008153;28;20506;-71
2023/04/06 05:16:12;;;;;;;9.63;5.88;;;0.80;99.90;;;;;;5011149;28;20537;-71
2023/04/06 05:18:38;;;;;;;12.32;6.03;;;0.70;99.90;;;;;;4990699;28;20099;-71
2023/04/06 05:21:04;;;;;;;11.48;6.03;;;0.70;99.90;;;;;;5009274;28;20084;-71
2023/04/06 05:23:30;;;;;;;10.63;6.00;;;0.70;99.90;;;;;;5008232;28;20045;-70
2023/04/06 05:25:55;;;;;;;12.45;6.28;;;0.70;99.90;;;;;;4992255;28;20045;-71
2023/04/06 05:28:21;;;;;;;13.27;5.90;;;0.70;99.90;;;;;;5008316;28;20056;-71
2023/04/06 05:30:47;;;;;;;9.77;5.43;;;0.70;99.90;;;;;;5020817;28;20088;-71
2023/04/06 05:33:13;;;;;;;14.40;6.05;;;0.70;99.90;;;;;;5005495;28;20136;-68
2023/04/06 05:35:39;;;;;;;9.68;5.78;;;0.70;99.90;;;;;;5021975;28;20371;-69
2023/04/06 05:38:09;;;;;;;16.38;7.63;;;0.80;99.90;;;;;;5025238;28;20049;-69
2023/04/06 05:40:37;;;;;;;12.03;6.33;;;0.80;99.90;;;;;;5029230;28;20280;-70
2023/04/06 05:43:03;;;;;;;12.88;6.35;;;0.80;99.90;;;;;;5011356;28;20078;-69
2023/04/06 05:45:30;;;;;;;12.15;5.93;;;0.90;99.90;;;;;;5026710;28;20486;-69
2023/04/06 05:47:56;;;;;;;12.10;6.38;;;0.90;99.90;;;;;;5032270;28;20134;-70
2023/04/06 05:50:22;;;;;;;14.90;6.75;;;1.00;99.90;;;;;;5028519;28;20067;-69
2023/04/06 05:52:48;;;;;;;10.70;6.28;;;1.00;99.90;;;;;;5020748;28;20041;-69
2023/04/06 05:55:13;;;;;;;15.93;6.20;;;1.20;99.90;;;;;;5017476;28;20041;-69
2023/04/06 05:57:42;;;;;;;12.63;6.60;;;1.40;99.90;;;;;;5026472;28;20179;-69
2023/04/06 06:00:09;;;;;;;14.23;6.20;;;1.70;99.90;;;;;;5025787;28;20048;-69
2023/04/06 06:02:34;;;;;;;10.05;5.95;;;1.80;99.90;;;;;;5033393;28;20121;-71
2023/04/06 06:05:00;;;;;;;11.02;5.95;;;2.10;99.90;;;;;;5036164;28;20610;-69
2023/04/06 06:07:26;;;;;;;11.45;6.13;;;2.20;99.90;;;;;;5037305;28;20060;-69
2023/04/06 06:09:52;;;;;;;12.85;5.90;;;2.30;99.90;;;;;;5036725;28;20160;-69
2023/04/06 06:12:17;;;;;;;12.48;6.20;;;2.40;99.90;;;;;;5027232;28;20048;-69
2023/04/06 06:14:43;;;;;;;10.38;5.68;;;2.40;99.90;;;;;;5025105;28;20130;-69
2023/04/06 06:17:09;;;;;;;13.35;6.03;;;2.50;99.90;;;;;;5029686;28;20052;-69
2023/04/06 06:19:34;;;;;;;11.45;6.28;;;2.60;99.90;;;;;;5027574;28;20037;-70
2023/04/06 06:22:02;;;;;;;14.50;6.00;;;2.90;99.90;;;;;;5030745;28;20045;-69
2023/04/06 06:24:28;;;;;;;12.18;6.60;;;3.10;99.90;;;;;;5032007;28;20055;-69
2023/04/06 06:26:54;;;;;;;13.25;6.25;;;3.20;99.90;;;;;;5027324;28;20049;-70
2023/04/06 06:29:19;;;;;;;11.15;5.97;;;3.20;99.90;;;;;;5023255;28;20087;-69
2023/04/06 06:31:45;;;;;;;9.90;5.78;;;3.30;99.90;;;;;;5024462;28;20048;-69
2023/04/06 06:34:12;;;;;;;10.20;6.00;;;3.40;99.90;;;;;;5026008;28;20029;-70
2023/04/06 06:36:38;;;;;;;14.60;5.65;;;3.30;99.90;;;;;;5029811;28;20045;-74
2023/04/06 06:39:04;;;;;;;11.75;6.35;;;3.40;99.90;;;;;;5036074;28;20115;-72
2023/04/06 06:41:30;;;;;;;12.02;6.35;;;3.50;99.90;;;;;;5026613;28;20890;-73
2023/04/06 06:43:55;;;;;;;10.73;6.55;;;3.70;99.90;;;;;;5029500;28;20041;-73
2023/04/06 06:46:21;;;;;;;13.38;6.20;;;3.80;99.90;;;;;;5049940;28;20048;-73
2023/04/06 06:48:47;;;;;;;11.27;6.07;;;4.00;99.90;;;;;;5034371;28;20086;-73
2023/04/06 06:51:12;;;;;;;11.00;6.28;;;4.10;99.90;;;;;;5034291;28;20045;-73
2023/04/06 06:53:38;;;;;;;14.13;6.53;;;4.10;99.90;;;;;;5045803;28;20815;-73
2023/04/06 06:56:04;;;;;;;12.88;6.15;;;4.20;99.90;;;;;;5035703;28;20040;-74
2023/04/06 06:58:30;;;;;;;12.15;6.60;;;4.20;99.90;;;;;;5031143;28;20073;-74
2023/04/06 07:00:59;;;;;;;12.75;6.20;;;4.30;99.90;;;;;;5034823;28;20044;-73
2023/04/06 07:03:25;;;;;;;12.68;6.13;;;4.40;99.90;;;;;;5042866;28;20098;-73
2023/04/06 07:05:54;;;;;;;9.63;5.55;;;4.50;99.90;;;;;;5034896;28;20059;-73
2023/04/06 07:08:22;;;;;;;9.80;6.28;;;5.20;99.90;;;;;;5046777;28;20515;-74
2023/04/06 07:10:48;;;;;;;12.65;7.00;;;4.70;99.90;;;;;;5048408;28;20032;-74
2023/04/06 07:13:18;;;;;;;13.48;7.47;;;5.40;99.90;;;;;;5034212;28;20295;-75
2023/04/06 07:15:44;;;;;;;13.73;6.57;;;5.00;99.90;;;;;;5034176;28;20547;-73
2023/04/06 07:18:10;;;;;;;12.65;7.47;;;5.10;99.90;;;;;;5055642;28;20247;-74
2023/04/06 07:20:39;;;;;;;14.88;6.55;;;5.20;99.90;;;;;;5045754;28;20043;-73
2023/04/06 07:23:04;;;;;;;13.10;6.97;;;5.30;99.90;;;;;;5021537;28;20076;-73
2023/04/06 07:25:30;;;;;;;13.38;6.85;;;5.50;99.90;;;;;;5037688;28;20090;-74
2023/04/06 07:27:56;;;;;;;14.02;6.82;;;6.20;99.90;;;;;;5043199;28;20128;-75
2023/04/06 07:30:22;;;;;;;14.10;7.25;;;6.20;99.90;;;;;;5039970;28;20041;-75
2023/04/06 07:32:48;;;;;;;11.50;6.85;;;6.00;99.90;;;;;;5020708;28;20107;-76
2023/04/06 07:35:15;;;;;;;12.80;7.22;;;6.10;99.90;;;;;;5036272;28;20053;-74
2023/04/06 07:37:42;;;;;;;14.43;7.43;;;6.30;99.90;;;;;;5023016;28;20069;-76
2023/04/06 07:40:08;;;;;;;14.70;7.03;;;6.40;99.90;;;;;;5050825;28;20057;-74
2023/04/06 07:42:34;;;;;;;12.07;6.75;;;6.50;99.90;;;;;;5039763;28;20582;-74
2023/04/06 07:44:59;;;;;;;12.85;6.70;;;6.70;99.90;;;;;;5035763;28;20049;-74
2023/04/06 07:47:25;;;;;;;13.77;7.13;;;7.20;99.90;;;;;;5035082;28;20055;-74
2023/04/06 07:49:51;;;;;;;11.02;6.32;;;7.00;99.90;;;;;;5039631;28;20098;-74
2023/04/06 07:52:17;;;;;;;12.98;7.30;;;7.00;99.90;;;;;;5027078;28;20681;-74
2023/04/06 07:54:44;;;;;;;14.63;6.80;;;7.10;99.90;;;;;;5045245;28;20120;-76
2023/04/06 07:57:09;;;;;;;12.52;7.22;;;7.20;99.90;;;;;;5035130;28;20056;-76
2023/04/06 07:59:35;;;;;;;12.23;7.10;;;7.30;99.90;;;;;;5031845;28;20049;-75
2023/04/06 08:02:01;;;;;;;12.70;6.90;;;7.50;99.90;;;;;;5021824;28;20121;-77
2023/04/06 08:04:26;;;;;;;12.73;7.05;;;7.50;99.90;;;;;;5042842;28;20790;-75
2023/04/06 08:06:52;;;;;;;13.85;6.63;;;7.60;99.90;;;;;;5036291;28;20084;-74
2023/04/06 08:09:18;;;;;;;11.95;7.55;;;7.60;99.90;;;;;;5044682;28;20040;-74
2023/04/06 08:11:45;;;;;;;10.65;6.82;;;7.70;99.90;;;;;;5037499;28;20033;-73
2023/04/06 08:14:11;;;;;;;12.50;6.85;;;7.80;99.90;;;;;;5039169;28;20045;-75
2023/04/06 08:16:37;;;;;;;13.23;7.80;;;7.90;99.90;;;;;;5043334;28;20052;-75
2023/04/06 08:19:04;;;;;;;15.32;7.38;;;8.00;99.90;;;;;;5018092;28;20073;-75
2023/04/06 08:21:30;;;;;;;13.27;7.85;;;8.10;99.90;;;;;;5030407;28;20404;-75
2023/04/06 08:23:56;;;;;;;13.00;7.32;;;8.50;99.90;;;;;;5030952;28;20472;-75
2023/04/06 08:26:21;;;;;;;15.32;7.65;;;8.30;99.90;;;;;;5037729;28;20124;-76
2023/04/06 08:28:47;;;;;;;12.60;7.63;;;8.40;99.90;;;;;;5022115;28;20059;-76
2023/04/06 08:31:13;;;;;;;14.48;7.78;;;8.50;99.90;;;;;;5032853;28;20041;-75
2023/04/06 08:33:39;;;;;;;11.40;7.18;;;8.60;99.90;;;;;;5040451;28;20033;-76
2023/04/06 08:36:13;;;;;;;15.48;8.25;;;8.70;99.90;;;;;;5025132;28;20444;-75
2023/04/06 08:38:40;;;;;;;13.18;7.20;;;8.70;99.90;;;;;;5013336;28;20060;-77
2023/04/06 08:41:10;;;;;;;14.40;7.97;;;9.00;99.50;;;;;;5029313;28;20549;-77
2023/04/06 08:43:48;;;;;;;15.07;7.93;;;8.80;98.70;;;;;;5044468;28;20401;-76
2023/04/06 08:46:14;;;;;;;12.55;7.60;;;8.90;99.80;;;;;;5033496;28;20570;-76
2023/04/06 08:48:42;;;;;;;16.73;7.50;;;9.00;99.70;;;;;;5037917;28;20110;-76
2023/04/06 08:51:09;;;;;;;12.18;7.32;;;9.20;99.90;;;;;;5049991;28;20048;-78
2023/04/06 08:53:35;;;;;;;14.23;8.38;;;9.30;99.30;;;;;;5032432;28;20363;-77
2023/04/06 08:56:03;;;;;;;16.55;8.80;;;9.50;98.40;;;;;;5040050;28;20071;-77
2023/04/06 08:58:36;;;;;;;14.80;8.18;;;9.60;98.30;;;;;;5026668;28;20132;-78
2023/04/06 09:01:06;;;;;;;13.07;8.32;;;9.70;96.40;;;;;;5029143;28;20438;-78
2023/04/06 09:03:36;;;;;;;13.15;8.13;;;9.70;95.50;;;;;;5033234;28;20077;-77
2023/04/06 09:06:02;;;;;;;14.10;7.55;;;9.70;96.10;;;;;;5019399;28;20045;-78
2023/04/06 09:08:28;;;;;;;13.40;8.27;;;9.60;96.10;;;;;;5024203;28;20049;-77
2023/04/06 09:10:53;;;;;;;13.00;8.20;;;9.60;96.50;;;;;;5026688;28;20093;-77
2023/04/06 09:13:19;;;;;;;18.92;9.05;;;9.70;96.20;;;;;;5039461;28;20049;-77
2023/04/06 09:15:45;;;;;;;15.48;8.63;;;9.70;96.30;;;;;;5039092;28;20132;-78
2023/04/06 09:18:10;;;;;;;15.75;8.82;;;9.70;96.30;;;;;;5017883;28;20068;-77
2023/04/06 09:20:36;;;;;;;17.15;9.48;;;9.70;97.10;;;;;;5060255;28;20426;-77
2023/04/06 09:23:02;;;;;;;16.10;9.35;;;9.80;96.30;;;;;;5054702;28;20098;-77
2023/04/06 09:25:28;;;;;;;15.48;9.23;;;9.80;96.00;;;;;;5034903;28;20040;-77
2023/04/06 09:28:02;;;;;;;16.27;9.32;;;9.80;96.20;;;;;;5040860;28;20466;-76
2023/04/06 09:30:28;;;;;;;16.38;8.88;;;9.80;96.40;;;;;;5031142;28;20040;-77
2023/04/06 09:32:57;;;;;;;14.88;9.50;;;10.00;96.50;;;;;;5047093;28;20040;-76
2023/04/06 09:35:26;;;;;;;18.60;9.73;;;10.00;96.10;;;;;;5047592;28;20156;-78
2023/04/06 09:37:52;;;;;;;18.17;10.57;;;10.10;96.50;;;;;;5042670;28;20572;-77
2023/04/06 09:40:19;;;;;;;18.20;10.55;;;10.10;96.00;;;;;;5042304;28;20057;-77
2023/04/06 09:42:46;;;;;;;22.38;11.43;;;10.10;96.00;;;;;;5025733;28;20059;-78
2023/04/06 09:45:13;;;;;;;19.90;11.10;;;10.10;95.00;;;;;;5034625;28;20056;-78
2023/04/06 09:47:44;;;;;;;19.42;11.23;;;10.10;95.40;;;;;;5031028;28;20055;-77
2023/04/06 09:50:16;;;;;;;16.95;9.20;;;10.20;95.80;;;;;;5009532;28;20049;-77
2023/04/06 09:52:49;;;;;;;;;;;10.40;96.50;;;;;;5045671;28;20616;-78
2023/04/06 09:55:30;;;;;;;18.05;10.63;;;10.30;95.50;;;;;;5041583;28;20304;-77
2023/04/06 09:58:25;;;;;;;19.98;11.05;;;10.50;94.70;;;;;;5029506;28;20387;-78
2023/04/06 10:01:05;;;;;;;22.63;12.90;;;10.60;95.10;;;;;;5028759;28;20049;-78
2023/04/06 10:03:55;;;;;;;23.45;12.73;;;10.70;94.20;;;;;;5049045;28;20044;-78
2023/04/06 10:06:23;;;;;;;24.30;12.23;;;10.60;94.20;;;;;;5019709;28;20127;-77
2023/04/06 10:08:51;;;;;;;22.83;12.52;;;10.70;94.00;;;;;;5039587;28;20083;-77
2023/04/06 10:11:18;;;;;;;22.77;12.55;;;10.70;94.50;;;;;;5032200;28;20075;-78
2023/04/06 10:13:47;;;;;;;21.42;12.00;;;10.70;94.60;;;;;;5020289;28;20044;-78
2023/04/06 10:16:14;;;;;;;22.20;13.65;;;10.70;95.20;;;;;;5029696;28;20725;-78
2023/04/06 10:18:54;;;;;;;22.60;13.70;;;10.80;94.00;;;;;;5022275;28;20037;-77
2023/04/06 10:21:24;;;;;;;26.13;14.43;;;10.80;94.90;;;;;;5024339;28;20033;-78
2023/04/06 10:24:02;;;;;;;21.57;13.93;;;10.90;94.60;;;;;;5026820;28;20045;-77
2023/04/06 10:26:27;;;;;;;22.33;13.27;;;11.00;94.40;;;;;;5032094;28;20071;-78
2023/04/06 10:28:54;;;;;;;22.10;13.48;;;11.00;94.00;;;;;;5037611;28;20717;-77
2023/04/06 10:31:27;;;;;;;23.85;14.38;;;11.10;94.10;;;;;;5022696;28;20151;-77
2023/04/06 10:33:57;;;;;;;22.90;13.48;;;11.30;93.70;;;;;;5039914;28;20485;-77
2023/04/06 10:36:34;;;;;;;22.42;13.63;;;11.30;93.60;;;;;;5029845;28;20115;-78
2023/04/06 10:39:04;;;;;;;25.42;13.38;;;11.30;93.80;;;;;;5006252;28;20033;-77
2023/04/06 10:41:34;;;;;;;25.15;14.18;;;11.40;94.80;;;;;;5026258;28;20683;-78
2023/04/06 10:44:01;;;;;;;22.95;14.13;;;11.50;93.80;;;;;;5010404;28;20036;-78
2023/04/06 10:46:31;;;;;;;24.70;15.35;;;11.60;93.90;;;;;;5033426;28;20052;-77
2023/04/06 10:48:57;;;;;;;29.33;16.07;;;11.60;93.80;;;;;;5039529;28;20041;-77
2023/04/06 10:51:28;;;;;;;27.00;15.93;;;11.60;93.90;;;;;;5030478;28;20044;-78
2023/04/06 10:53:54;;;;;;;28.42;17.00;;;11.70;94.30;;;;;;5007634;28;20049;-71
2023/04/06 10:56:25;;;;;;;28.35;17.48;;;11.70;93.70;;;;;;5049141;28;20044;-71
2023/04/06 10:58:57;;;;;;;32.33;20.63;;;11.80;93.20;;;;;;5037002;28;20049;-71
2023/04/06 11:01:26;;;;;;;29.52;18.70;;;11.90;92.90;;;;;;5035036;28;20532;-71
2023/04/06 11:03:57;;;;;;;29.85;18.13;;;11.90;93.30;;;;;;5032382;28;20589;-71
2023/04/06 11:06:29;;;;;;;29.88;18.35;;;12.00;92.90;;;;;;5053186;28;20056;-70
2023/04/06 11:08:55;;;;;;;33.53;20.15;;;12.00;91.80;;;;;;5010628;28;20048;-70
2023/04/06 11:11:23;;;;;;;34.25;20.15;;;12.10;92.40;;;;;;5042399;28;20601;-70
2023/04/06 11:13:54;;;;;;;30.80;19.02;;;12.10;92.40;;;;;;5030172;28;20148;-70
2023/04/06 11:16:29;;;;;;;28.95;18.38;;;12.20;93.00;;;;;;5036957;28;20041;-70
2023/04/06 11:18:57;;;;;;;30.42;18.08;;;12.20;93.60;;;;;;5030737;28;20052;-71
2023/04/06 11:21:43;;;;;;;28.50;18.25;;;12.30;93.30;;;;;;5042169;28;20110;-72
2023/04/06 11:24:11;;;;;;;29.08;18.75;;;12.40;92.40;;;;;;5029403;28;20469;-72
2023/04/06 11:26:38;;;;;;;32.55;19.27;;;12.30;91.80;;;;;;5015104;28;20041;-72
2023/04/06 11:29:05;;;;;;;32.47;21.35;;;12.40;92.10;;;;;;5018607;28;20049;-71
2023/04/06 11:31:31;;;;;;;33.20;21.70;;;12.30;91.90;;;;;;5038041;28;20041;-70
2023/04/06 11:33:57;;;;;;;35.70;21.65;;;12.30;91.40;;;;;;5020612;28;20116;-70
2023/04/06 11:36:26;;;;;;;34.22;22.02;;;12.30;90.40;;;;;;5034633;28;20053;-71
2023/04/06 11:38:51;;;;;;;34.28;19.95;;;12.30;90.50;;;;;;5008437;28;20075;-70
2023/04/06 11:41:18;;;;;;;34.30;21.10;;;12.30;88.00;;;;;;5004086;28;20132;-70
2023/04/06 11:43:48;;;;;;;33.13;21.67;;;12.20;90.50;;;;;;5014022;28;20128;-72
2023/04/06 11:46:18;;;;;;;31.48;19.75;;;12.30;90.70;;;;;;5040234;28;20101;-70
2023/04/06 11:48:46;;;;;;;29.85;19.13;;;12.10;90.90;;;;;;5026807;28;20040;-70
2023/04/06 11:51:21;;;;;;;31.20;20.48;;;12.20;91.20;;;;;;5007171;28;20442;-71
2023/04/06 11:53:46;;;;;;;30.52;19.73;;;12.20;91.60;;;;;;5035404;28;20574;-71
2023/04/06 11:56:23;;;;;;;33.60;19.40;;;12.20;90.20;;;;;;5031553;28;20120;-71
2023/04/06 11:58:49;;;;;;;33.05;19.25;;;12.20;89.60;;;;;;5036259;28;20045;-71
2023/04/06 12:01:15;;;;;;;33.28;18.77;;;12.20;88.40;;;;;;5038961;28;20040;-71
2023/04/06 12:03:41;;;;;;;32.47;19.58;;;12.20;87.60;;;;;;5037370;28;20055;-71
2023/04/06 12:06:07;;;;;;;31.92;18.30;;;12.20;90.10;;;;;;5051495;28;20529;-71
2023/04/06 12:08:33;;;;;;;33.00;20.23;;;12.20;90.40;;;;;;5050099;28;20041;-72
2023/04/06 12:10:59;;;;;;;32.25;19.80;;;12.20;90.90;;;;;;5036291;28;20092;-72
2023/04/06 12:13:25;;;;;;;29.92;18.75;;;12.20;90.70;;;;;;5033491;28;20102;-72
2023/04/06 12:15:50;;;;;;;29.58;19.48;;;12.20;90.80;;;;;;5013486;28;20460;-71
2023/04/06 12:18:16;;;;;;;29.40;19.27;;;12.20;90.10;;;;;;5011749;28;20379;-72
2023/04/06 12:20:42;;;;;;;31.05;19.42;;;12.30;90.10;;;;;;4999334;28;20056;-72
2023/04/06 12:23:07;;;;;;;30.30;19.25;;;12.20;89.10;;;;;;5000885;28;20053;-71
2023/04/06 12:25:33;;;;;;;32.35;19.80;;;12.10;89.20;;;;;;5021576;28;20541;-72
2023/04/06 12:27:59;;;;;;;34.17;18.90;;;12.10;89.60;;;;;;5033492;28;20099;-70
2023/04/06 12:30:25;;;;;;;29.48;18.88;;;12.10;90.40;;;;;;5014154;28;20056;-71
2023/04/06 12:32:50;;;;;;;33.40;19.60;;;12.00;90.30;;;;;;5011514;28;20046;-71
2023/04/06 12:35:16;;;;;;;31.17;19.58;;;12.10;90.40;;;;;;5013787;28;20049;-72
2023/04/06 12:37:42;;;;;;;30.13;18.75;;;12.10;90.90;;;;;;4998912;28;20044;-72
2023/04/06 12:40:10;;;;;;;29.52;18.85;;;12.10;91.10;;;;;;4997469;28;20049;-73
2023/04/06 12:42:40;;;;;;;30.85;18.85;;;12.10;90.80;;;;;;5012983;28;20128;-73